Time;durP1;ratioP1;P1;durP2;ratioP2;P2;SDS_P1;SDS_P2;PMS_P1;PMS_P2;Temp;Humidity;BMP_temperature;BMP_pressure;BME280_temperature;BME280_humidity;BME280_pressure;Samples;Min_cycle;Max_cycle;Signal;HPM_P1;HPM_P2
2022/08/05 00:01:41;;;;;;;7.77;6.60;;;20.10;99.90;;;;;;8341582;28;20196;-66
2022/08/05 00:05:42;;;;;;;8.07;6.40;;;20.00;99.90;;;;;;8341112;28;20204;-66
2022/08/05 00:09:43;;;;;;;7.90;7.10;;;19.90;99.90;;;;;;8340732;28;20202;-65
2022/08/05 00:13:44;;;;;;;7.27;6.07;;;19.80;99.90;;;;;;8343764;28;20267;-65
2022/08/05 00:17:45;;;;;;;7.63;6.43;;;19.70;99.90;;;;;;8354697;28;20421;-66
2022/08/05 00:21:46;;;;;;;9.37;6.73;;;19.60;99.90;;;;;;8346685;28;20196;-67
2022/08/05 00:25:47;;;;;;;8.23;7.03;;;19.60;99.90;;;;;;8341670;28;20187;-66
2022/08/05 00:29:48;;;;;;;7.43;6.73;;;19.60;1.00;;;;;;8341548;28;20187;-67
2022/08/05 00:33:49;;;;;;;8.10;7.20;;;19.60;1.00;;;;;;8341884;28;20220;-75
2022/08/05 00:37:50;;;;;;;8.10;7.13;;;19.50;1.00;;;;;;8337113;28;20185;-66
2022/08/05 00:41:50;;;;;;;8.63;7.60;;;19.50;1.00;;;;;;8347399;28;20208;-66
2022/08/05 00:45:51;;;;;;;7.83;7.13;;;19.50;1.00;;;;;;8348659;28;20258;-66
2022/08/05 00:49:52;;;;;;;7.33;6.57;;;19.30;1.00;;;;;;8354564;28;20181;-66
2022/08/05 00:53:53;;;;;;;7.27;6.57;;;19.10;1.00;;;;;;8347108;28;20180;-66
2022/08/05 00:57:54;;;;;;;6.73;6.23;;;18.90;1.00;;;;;;8348763;28;20186;-66
2022/08/05 01:01:55;;;;;;;8.33;7.53;;;18.70;41.80;;;;;;8352931;28;20189;-66
2022/08/05 01:05:56;;;;;;;8.40;7.50;;;18.60;99.90;;;;;;8351059;28;20207;-66
2022/08/05 01:09:57;;;;;;;8.53;7.77;;;18.50;99.90;;;;;;8354911;28;20219;-66
2022/08/05 01:14:10;;;;;;;8.23;7.53;;;18.40;99.90;;;;;;8345850;28;20209;-66
2022/08/05 01:18:14;;;;;;;9.10;8.03;;;18.40;99.90;;;;;;8348435;28;20236;-66
2022/08/05 01:22:44;;;;;;;8.77;7.97;;;18.40;99.90;;;;;;8366215;28;20191;-67
2022/08/05 01:27:07;;;;;;;8.77;7.87;;;18.30;99.90;;;;;;8345082;28;20183;-68
2022/08/05 01:31:19;;;;;;;8.47;7.67;;;18.30;99.90;;;;;;8351531;28;20205;-67
2022/08/05 01:35:26;;;;;;;11.50;9.33;;;18.10;99.90;;;;;;8348118;28;20216;-66
2022/08/05 01:39:28;;;;;;;8.80;8.00;;;18.00;99.90;;;;;;8347906;28;20189;-67
2022/08/05 01:43:31;;;;;;;8.83;8.03;;;17.90;99.90;;;;;;8367155;28;20252;-66
2022/08/05 01:47:34;;;;;;;9.20;8.30;;;17.80;99.90;;;;;;8362446;28;20193;-67
2022/08/05 01:51:36;;;;;;;8.73;7.93;;;17.70;99.90;;;;;;8348036;28;20206;-75
2022/08/05 01:55:39;;;;;;;9.13;8.10;;;17.60;99.90;;;;;;8348746;28;20194;-66
2022/08/05 01:59:41;;;;;;;8.53;7.77;;;17.50;99.90;;;;;;8366938;28;20185;-66
2022/08/05 02:03:45;;;;;;;9.10;8.30;;;17.40;99.90;;;;;;8342127;28;20193;-66
2022/08/05 02:07:46;;;;;;;9.03;8.23;;;17.30;99.90;;;;;;8346598;28;20181;-66
2022/08/05 02:12:04;;;;;;;9.50;8.60;;;17.20;99.90;;;;;;8343277;28;20221;-66
2022/08/05 02:16:24;;;;;;;10.40;9.40;;;17.10;99.90;;;;;;8349938;28;20193;-66
2022/08/05 02:20:29;;;;;;;10.30;9.30;;;17.10;99.90;;;;;;8352252;28;20198;-66
2022/08/05 02:24:36;;;;;;;9.90;8.90;;;17.10;1.00;;;;;;8352304;28;20194;-66
2022/08/05 02:28:41;;;;;;;10.47;9.37;;;17.10;1.00;;;;;;8343325;28;20187;-66
2022/08/05 02:32:50;;;;;;;10.23;8.47;;;17.00;1.00;;;;;;8345613;28;20210;-66
2022/08/05 02:36:54;;;;;;;9.87;9.00;;;17.00;15.70;;;;;;8360206;28;20182;-66
2022/08/05 02:40:58;;;;;;;10.73;9.63;;;16.90;1.00;;;;;;8343925;28;20194;-67
2022/08/05 02:45:00;;;;;;;10.63;9.57;;;16.80;81.00;;;;;;8346503;28;20190;-66
2022/08/05 02:49:04;;;;;;;11.13;9.77;;;16.80;99.90;;;;;;8342071;28;20252;-66
2022/08/05 02:53:05;;;;;;;10.40;9.43;;;16.70;99.90;;;;;;8350579;28;20214;-66
2022/08/05 02:57:09;;;;;;;11.20;10.10;;;16.70;99.90;;;;;;8360492;28;20216;-66
2022/08/05 03:01:14;;;;;;;11.03;9.90;;;16.70;99.90;;;;;;8349206;28;20193;-66
2022/08/05 03:05:15;;;;;;;11.13;10.00;;;16.70;1.00;;;;;;8358714;28;20194;-66
2022/08/05 03:09:17;;;;;;;10.23;9.23;;;16.70;1.00;;;;;;8347329;28;20288;-66
2022/08/05 03:13:17;;;;;;;10.37;9.27;;;16.60;99.90;;;;;;8336413;28;20630;-66
2022/08/05 03:17:18;;;;;;;10.53;9.30;;;16.60;99.90;;;;;;8340502;28;20192;-66
2022/08/05 03:21:19;;;;;;;12.13;10.70;;;16.50;1.00;;;;;;8339012;28;20201;-66
2022/08/05 03:25:21;;;;;;;12.43;11.17;;;16.50;1.00;;;;;;8340492;28;20239;-66
2022/08/05 03:29:22;;;;;;;11.87;10.77;;;16.50;99.90;;;;;;8335549;28;20187;-65
2022/08/05 03:33:24;;;;;;;12.73;11.30;;;16.50;1.00;;;;;;8343181;28;20259;-65
2022/08/05 03:37:24;;;;;;;12.20;10.97;;;16.60;1.00;;;;;;8341848;28;20192;-66
2022/08/05 03:41:25;;;;;;;13.00;11.60;;;16.70;1.00;;;;;;8343140;28;20190;-65
2022/08/05 03:45:26;;;;;;;12.87;11.37;;;16.70;99.90;;;;;;8342951;28;20197;-65
2022/08/05 03:49:27;;;;;;;12.30;10.97;;;16.80;99.90;;;;;;8343857;28;20186;-65
2022/08/05 03:53:39;;;;;;;11.87;10.17;;;16.90;1.00;;;;;;8336448;28;20244;-71
2022/08/05 03:57:44;;;;;;;12.10;10.87;;;17.10;99.90;;;;;;8340464;28;20249;-65
2022/08/05 04:01:48;;;;;;;10.67;9.67;;;17.20;99.90;;;;;;8336978;28;20190;-65
2022/08/05 04:05:49;;;;;;;11.63;10.43;;;17.30;4.80;;;;;;8338740;28;20197;-66
2022/08/05 04:09:52;;;;;;;12.10;10.90;;;17.60;1.00;;;;;;8339065;28;20205;-66
2022/08/05 04:13:54;;;;;;;13.80;9.97;;;18.60;1.00;;;;;;8338317;28;20297;-66
2022/08/05 04:17:55;;;;;;;29.77;22.30;;;19.60;99.90;;;;;;8338827;28;20261;-67
2022/08/05 04:21:56;;;;;;;16.43;14.07;;;20.50;1.00;;;;;;8343003;28;20200;-66
2022/08/05 04:25:57;;;;;;;11.87;10.47;;;21.30;99.90;;;;;;8337250;28;20224;-66
2022/08/05 04:29:57;;;;;;;9.50;8.23;;;22.00;99.90;;;;;;8343836;28;20280;-66
2022/08/05 04:33:58;;;;;;;8.43;7.67;;;22.50;99.90;;;;;;8333979;28;20209;-66
2022/08/05 04:37:59;;;;;;;8.17;7.33;;;23.00;99.90;;;;;;8342912;28;20190;-66
2022/08/05 04:42:00;;;;;;;8.23;7.50;;;23.50;94.10;;;;;;8339874;28;20186;-66
2022/08/05 04:46:02;;;;;;;7.87;7.00;;;23.80;47.90;;;;;;8336718;28;20191;-66
2022/08/05 04:50:03;;;;;;;8.73;6.97;;;24.00;28.60;;;;;;8336580;28;20452;-66
2022/08/05 04:54:04;;;;;;;8.30;7.37;;;24.00;15.00;;;;;;8334367;28;20183;-67
2022/08/05 04:58:08;;;;;;;8.07;7.27;;;24.00;5.40;;;;;;8339118;28;20194;-66
2022/08/05 05:02:09;;;;;;;9.80;7.10;;;23.90;11.10;;;;;;8353053;28;20191;-66
2022/08/05 05:06:10;;;;;;;7.13;6.47;;;24.10;16.20;;;;;;8338345;28;20182;-67
2022/08/05 05:10:11;;;;;;;9.77;6.90;;;24.00;27.10;;;;;;8342909;28;20201;-66
2022/08/05 05:14:12;;;;;;;10.10;7.60;;;23.70;26.90;;;;;;8340439;28;20201;-66
2022/08/05 05:18:14;;;;;;;9.10;7.80;;;23.40;48.40;;;;;;8341824;28;20182;-67
2022/08/05 05:22:15;;;;;;;13.00;7.23;;;22.90;94.00;;;;;;8340852;28;20218;-66
2022/08/05 05:26:16;;;;;;;8.27;7.37;;;22.70;99.90;;;;;;8341445;28;20181;-67
2022/08/05 05:30:18;;;;;;;9.43;7.30;;;22.70;99.90;;;;;;8351668;28;20212;-66
2022/08/05 05:34:18;;;;;;;9.80;8.27;;;22.70;99.90;;;;;;8345915;28;20253;-66
2022/08/05 05:38:19;;;;;;;9.00;8.00;;;22.70;99.90;;;;;;8339996;28;20259;-66
2022/08/05 05:42:20;;;;;;;11.17;8.93;;;22.60;99.90;;;;;;8340902;28;20213;-66
2022/08/05 05:46:20;;;;;;;10.10;7.70;;;22.70;99.90;;;;;;8343250;28;20189;-67
2022/08/05 05:50:21;;;;;;;11.93;7.70;;;22.90;99.90;;;;;;8347729;28;20232;-67
2022/08/05 05:54:22;;;;;;;10.83;7.17;;;23.00;99.90;;;;;;8342647;28;20185;-67
2022/08/05 05:58:23;;;;;;;13.93;6.93;;;23.10;99.90;;;;;;8342914;28;20258;-67
2022/08/05 06:02:23;;;;;;;13.50;7.70;;;23.30;99.90;;;;;;8344753;28;20189;-66
2022/08/05 06:06:24;;;;;;;12.13;7.70;;;23.50;99.90;;;;;;8345475;28;20190;-66
2022/08/05 06:10:25;;;;;;;7.73;6.93;;;23.70;79.70;;;;;;8354373;28;20256;-66
2022/08/05 06:14:26;;;;;;;7.70;6.73;;;23.80;51.90;;;;;;8341266;28;20206;-65
2022/08/05 06:18:27;;;;;;;7.83;6.40;;;24.10;42.80;;;;;;8338274;28;20186;-66
2022/08/05 06:22:30;;;;;;;12.47;7.10;;;24.20;25.50;;;;;;8342319;28;20202;-66
2022/08/05 06:26:31;;;;;;;8.20;6.80;;;24.40;25.50;;;;;;8339594;28;20192;-68
2022/08/05 06:30:31;;;;;;;8.73;6.53;;;24.60;12.40;;;;;;8342941;28;20205;-68
2022/08/05 06:34:32;;;;;;;9.83;7.17;;;24.90;1.00;;;;;;8345053;28;20216;-67
2022/08/05 06:38:33;;;;;;;8.40;5.27;;;25.10;1.00;;;;;;8350181;28;20191;-67
2022/08/05 06:42:34;;;;;;;12.17;5.47;;;25.30;1.00;;;;;;8341654;28;20242;-66
2022/08/05 06:46:34;;;;;;;7.23;5.50;;;25.40;1.00;;;;;;8344057;28;20197;-66
2022/08/05 06:50:35;;;;;;;6.30;4.97;;;25.60;1.00;;;;;;8342309;28;20205;-67
2022/08/05 06:54:37;;;;;;;6.17;4.57;;;25.80;1.00;;;;;;8345350;28;20224;-66
2022/08/05 06:58:37;;;;;;;7.77;4.80;;;26.00;1.00;;;;;;8342832;28;20191;-66
2022/08/05 07:02:46;;;;;;;6.85;4.93;;;26.20;1.00;;;;;;8342534;28;20225;-66
2022/08/05 07:06:46;;;;;;;7.40;4.78;;;26.40;1.00;;;;;;8346088;28;20209;-67
2022/08/05 07:10:48;;;;;;;11.27;4.95;;;26.60;1.00;;;;;;8359346;28;20252;-66
2022/08/05 07:19:28;;;;;;;7.45;4.40;;;26.90;1.00;;;;;;8366128;28;20231;-67
2022/08/05 07:23:28;;;;;;;6.50;4.80;;;27.20;1.00;;;;;;8351924;28;20231;-67
2022/08/05 07:27:31;;;;;;;6.85;4.72;;;27.50;1.00;;;;;;8344857;28;20182;-67
2022/08/05 07:31:32;;;;;;;7.75;4.80;;;27.70;1.00;;;;;;8338657;28;20205;-65
2022/08/05 07:35:33;;;;;;;5.03;4.13;;;28.00;1.00;;;;;;8346231;28;20217;-65
2022/08/05 07:39:36;;;;;;;6.15;3.85;;;28.20;1.00;;;;;;8340029;28;20181;-65
2022/08/05 07:43:37;;;;;;;4.03;3.63;;;28.30;1.00;;;;;;8334867;28;20208;-65
2022/08/05 07:47:38;;;;;;;4.82;3.85;;;28.60;1.00;;;;;;8337096;28;20179;-66
2022/08/05 07:51:38;;;;;;;6.07;4.00;;;28.80;1.00;;;;;;8341959;28;20210;-65
2022/08/05 07:55:39;;;;;;;4.60;3.50;;;28.90;1.00;;;;;;8335907;28;20185;-65
2022/08/05 07:59:40;;;;;;;4.22;3.20;;;29.00;1.00;;;;;;8336373;28;20177;-65
2022/08/05 08:03:41;;;;;;;8.13;3.60;;;29.30;1.00;;;;;;8340223;28;20192;-65
2022/08/05 08:07:42;;;;;;;5.20;3.60;;;29.60;1.00;;;;;;8340679;28;20185;-68
2022/08/05 08:11:43;;;;;;;4.72;3.20;;;29.80;1.00;;;;;;8340293;28;20206;-65
2022/08/05 08:15:43;;;;;;;3.90;3.17;;;30.10;1.00;;;;;;8337235;28;20185;-63
2022/08/05 08:19:45;;;;;;;5.45;2.92;;;30.40;1.00;;;;;;8337698;28;20233;-64
2022/08/05 08:23:46;;;;;;;5.25;2.78;;;30.70;1.00;;;;;;8336524;28;20182;-65
2022/08/05 08:27:46;;;;;;;4.65;3.22;;;31.00;1.00;;;;;;8337624;28;20276;-64
2022/08/05 08:31:51;;;;;;;5.93;2.92;;;31.30;1.00;;;;;;8331937;28;20206;-66
2022/08/05 08:35:51;;;;;;;5.93;3.08;;;31.50;1.00;;;;;;8350792;28;20268;-64
2022/08/05 08:39:52;;;;;;;4.55;3.20;;;31.80;1.00;;;;;;8339950;28;20181;-66
2022/08/05 08:43:54;;;;;;;6.68;3.10;;;31.90;1.00;;;;;;8335596;28;20273;-64
2022/08/05 08:47:56;;;;;;;3.97;2.60;;;31.90;1.00;;;;;;8341475;28;20232;-65
2022/08/05 08:52:21;;;;;;;7.13;3.10;;;32.10;1.00;;;;;;8335921;28;20300;-65
2022/08/05 08:56:22;;;;;;;4.53;2.90;;;32.30;1.00;;;;;;8337114;28;20183;-66
2022/08/05 09:00:24;;;;;;;6.53;3.20;;;32.40;1.00;;;;;;8340493;28;20192;-64
2022/08/05 09:04:26;;;;;;;5.32;2.95;;;32.60;1.00;;;;;;8341989;28;20320;-65
2022/08/05 09:08:26;;;;;;;3.88;3.28;;;32.70;1.00;;;;;;8358602;28;20249;-66
2022/08/05 09:12:27;;;;;;;3.05;2.75;;;32.90;1.00;;;;;;8350022;28;20221;-64
2022/08/05 09:16:28;;;;;;;4.80;2.88;;;33.00;1.00;;;;;;8338646;28;20284;-65
2022/08/05 09:20:29;;;;;;;3.70;2.72;;;33.30;1.00;;;;;;8346021;28;20293;-65
2022/08/05 09:24:30;;;;;;;5.32;2.80;;;33.70;1.00;;;;;;8341722;28;20190;-66
2022/08/05 09:28:33;;;;;;;3.65;2.50;;;34.10;1.00;;;;;;8342474;28;20171;-66
2022/08/05 09:32:36;;;;;;;4.28;2.08;;;34.50;1.00;;;;;;8358352;28;20269;-66
2022/08/05 09:36:48;;;;;;;3.38;2.70;;;34.70;1.00;;;;;;8357097;28;20186;-65
2022/08/05 09:40:49;;;;;;;2.95;2.20;;;34.90;1.00;;;;;;8341941;28;20210;-67
2022/08/05 09:44:52;;;;;;;4.10;2.47;;;35.00;1.00;;;;;;8358225;28;20272;-66
2022/08/05 09:48:53;;;;;;;5.45;2.60;;;35.10;1.00;;;;;;8339718;28;20280;-65
2022/08/05 09:52:57;;;;;;;2.70;2.13;;;35.20;1.00;;;;;;8341611;28;20206;-66
2022/08/05 09:56:58;;;;;;;2.65;2.22;;;35.40;1.00;;;;;;8338533;28;20277;-66
2022/08/05 10:01:02;;;;;;;3.22;2.20;;;35.50;1.00;;;;;;8339174;28;20198;-66
2022/08/05 10:05:08;;;;;;;3.58;2.60;;;35.60;1.00;;;;;;8341775;28;20193;-66
2022/08/05 10:09:10;;;;;;;4.40;2.25;;;35.80;1.00;;;;;;8348910;28;20210;-75
2022/08/05 10:13:24;;;;;;;4.00;2.00;;;35.70;1.00;;;;;;8340438;28;20252;-66
2022/08/05 10:17:25;;;;;;;2.88;2.20;;;35.60;1.00;;;;;;8337696;28;20246;-66
2022/08/05 10:21:26;;;;;;;3.28;1.67;;;36.00;1.00;;;;;;8353950;28;20189;-64
2022/08/05 10:25:27;;;;;;;1.83;1.73;;;35.90;1.00;;;;;;8341073;28;20179;-64
2022/08/05 10:29:32;;;;;;;3.13;1.90;;;35.20;1.00;;;;;;8340709;28;20204;-65
2022/08/05 10:33:34;;;;;;;3.85;1.70;;;34.90;1.00;;;;;;8337371;28;20216;-65
2022/08/05 10:37:35;;;;;;;3.08;1.90;;;34.90;1.00;;;;;;8340014;28;20214;-72
2022/08/05 10:41:46;;;;;;;2.30;2.10;;;34.80;1.00;;;;;;8341366;28;20527;-65
2022/08/05 10:45:58;;;;;;;1.90;1.70;;;35.20;1.00;;;;;;8344081;28;20210;-66
2022/08/05 10:50:05;;;;;;;2.20;2.00;;;35.70;1.00;;;;;;8335716;28;20247;-64
2022/08/05 10:54:06;;;;;;;2.35;2.03;;;35.90;1.00;;;;;;8338395;28;20202;-65
2022/08/05 10:58:12;;;;;;;2.17;1.98;;;36.20;1.00;;;;;;8338286;28;20190;-66
2022/08/05 11:02:13;;;;;;;1.73;1.50;;;36.50;1.00;;;;;;8340919;28;20281;-65
2022/08/05 11:06:15;;;;;;;1.80;1.70;;;36.50;1.00;;;;;;8340539;28;20186;-64
2022/08/05 11:10:24;;;;;;;2.28;2.03;;;36.60;1.00;;;;;;8352260;28;20190;-65
2022/08/05 11:14:29;;;;;;;2.03;1.63;;;36.40;99.90;;;;;;8341550;28;20236;-64
2022/08/05 11:18:33;;;;;;;2.15;1.92;;;36.00;1.00;;;;;;8340118;28;20177;-65
2022/08/05 11:22:48;;;;;;;4.45;1.88;;;36.30;1.00;;;;;;8338903;28;20191;-64
2022/08/05 11:27:30;;;;;;;2.17;2.00;;;35.70;1.00;;;;;;8337981;28;20182;-65
2022/08/05 11:31:31;;;;;;;4.15;1.90;;;35.40;1.00;;;;;;8338464;28;20292;-64
2022/08/05 11:35:53;;;;;;;4.00;2.10;;;35.10;99.90;;;;;;8339589;28;20178;-64
2022/08/05 11:39:54;;;;;;;2.25;1.92;;;34.60;99.90;;;;;;8343165;28;20194;-64
2022/08/05 11:43:57;;;;;;;2.80;2.10;;;34.60;1.00;;;;;;8337874;28;20187;-65
2022/08/05 11:47:58;;;;;;;4.53;2.05;;;34.60;1.00;;;;;;8342964;28;20190;-66
2022/08/05 11:51:58;;;;;;;2.83;2.00;;;34.60;1.00;;;;;;8338704;28;20216;-63
2022/08/05 11:56:01;;;;;;;7.82;2.40;;;34.90;1.00;;;;;;8336013;28;20218;-66
2022/08/05 12:00:03;;;;;;;3.88;2.35;;;34.90;1.00;;;;;;8336478;28;20183;-66
2022/08/05 12:04:03;;;;;;;6.68;2.10;;;34.90;1.00;;;;;;8335245;28;20192;-64
2022/08/05 12:08:04;;;;;;;4.63;2.20;;;34.90;1.00;;;;;;8339948;28;20190;-66
2022/08/05 12:12:07;;;;;;;2.05;1.83;;;35.00;1.00;;;;;;8337036;28;20211;-65
2022/08/05 12:16:08;;;;;;;2.85;2.10;;;35.10;99.90;;;;;;8335736;28;20210;-65
2022/08/05 12:20:09;;;;;;;3.35;2.08;;;35.00;99.90;;;;;;8335871;28;20236;-66
2022/08/05 12:24:14;;;;;;;1.90;1.73;;;34.70;99.90;;;;;;8338593;28;20189;-65
2022/08/05 12:28:30;;;;;;;4.80;1.83;;;34.90;99.90;;;;;;8333150;28;20548;-65
2022/08/05 12:32:32;;;;;;;2.47;2.00;;;35.20;99.90;;;;;;8332805;28;20202;-67
2022/08/05 12:36:35;;;;;;;2.60;1.95;;;35.40;99.90;;;;;;8344337;28;20209;-64
2022/08/05 12:40:36;;;;;;;4.05;1.70;;;35.20;99.90;;;;;;8344167;28;20175;-65
2022/08/05 12:44:38;;;;;;;2.55;1.90;;;35.40;99.90;;;;;;8332000;28;20237;-65
2022/08/05 12:48:38;;;;;;;7.10;2.25;;;35.50;99.90;;;;;;8334559;28;20186;-63
2022/08/05 12:52:39;;;;;;;4.70;2.08;;;35.60;99.90;;;;;;8341126;28;20612;-65
2022/08/05 12:56:42;;;;;;;7.63;2.42;;;35.70;99.90;;;;;;8334624;28;20254;-65
2022/08/05 13:00:45;;;;;;;2.42;2.00;;;35.70;99.90;;;;;;8334995;28;20174;-66
2022/08/05 13:04:48;;;;;;;3.95;1.92;;;35.60;99.90;;;;;;8333005;28;20218;-65
2022/08/05 13:08:48;;;;;;;2.58;2.25;;;35.40;99.90;;;;;;8333370;28;20261;-66
2022/08/05 13:12:51;;;;;;;3.83;2.15;;;35.50;99.90;;;;;;8332964;28;20205;-63
2022/08/05 13:16:55;;;;;;;3.35;2.20;;;35.60;99.90;;;;;;8335864;28;20209;-63
2022/08/05 13:20:56;;;;;;;2.67;2.47;;;35.80;99.90;;;;;;8344171;28;20273;-65
2022/08/05 13:24:59;;;;;;;2.95;2.30;;;35.90;99.90;;;;;;8336013;28;20182;-65
2022/08/05 13:29:00;;;;;;;4.90;2.58;;;35.60;99.90;;;;;;8335150;28;20189;-65
2022/08/05 13:33:04;;;;;;;3.92;2.70;;;35.60;99.90;;;;;;8333660;28;20530;-65
2022/08/05 13:37:05;;;;;;;5.05;2.42;;;35.60;99.90;;;;;;8334346;28;20208;-65
2022/08/05 13:41:05;;;;;;;4.32;2.50;;;35.60;99.90;;;;;;8333930;28;20208;-64
2022/08/05 13:45:07;;;;;;;2.55;2.35;;;35.60;99.90;;;;;;8334195;28;20182;-65
2022/08/05 13:49:08;;;;;;;2.58;2.30;;;35.50;99.90;;;;;;8339674;28;20209;-65
2022/08/05 13:53:08;;;;;;;12.30;2.65;;;35.70;99.90;;;;;;8346937;28;20262;-65
2022/08/05 13:57:10;;;;;;;3.08;2.20;;;35.80;99.90;;;;;;8341694;28;20182;-65
2022/08/05 14:01:11;;;;;;;2.38;2.00;;;35.70;99.90;;;;;;8339894;28;20186;-65
2022/08/05 14:05:14;;;;;;;5.00;1.95;;;35.90;99.90;;;;;;8344838;28;20197;-66
2022/08/05 14:09:14;;;;;;;2.55;2.35;;;36.00;99.90;;;;;;8340420;28;20197;-65
2022/08/05 14:13:15;;;;;;;3.47;2.58;;;35.50;99.90;;;;;;8343268;28;20333;-63
2022/08/05 14:17:16;;;;;;;5.22;2.55;;;35.30;99.90;;;;;;8345634;28;20185;-65
2022/08/05 14:21:17;;;;;;;2.33;2.13;;;35.20;99.90;;;;;;8346379;28;20190;-63
2022/08/05 14:25:20;;;;;;;7.35;2.50;;;35.40;99.90;;;;;;8344350;28;20178;-63
2022/08/05 14:29:21;;;;;;;3.25;2.38;;;35.50;99.90;;;;;;8340157;28;20185;-63
2022/08/05 14:33:25;;;;;;;2.60;2.40;;;35.40;99.90;;;;;;8342536;28;20199;-63
2022/08/05 14:37:25;;;;;;;3.67;2.20;;;35.10;99.90;;;;;;8345952;28;20186;-63
2022/08/05 14:41:26;;;;;;;2.38;2.17;;;34.90;99.90;;;;;;8341445;28;20190;-65
2022/08/05 14:45:27;;;;;;;3.78;2.40;;;34.80;99.90;;;;;;8355663;28;20265;-64
2022/08/05 14:49:28;;;;;;;6.40;2.47;;;34.90;99.90;;;;;;8342469;28;20175;-63
2022/08/05 14:53:29;;;;;;;5.18;2.40;;;34.70;99.90;;;;;;8344112;28;20211;-64
2022/08/05 14:57:29;;;;;;;3.80;2.40;;;34.50;99.90;;;;;;8334012;28;20182;-66
2022/08/05 15:01:30;;;;;;;5.07;2.50;;;34.20;99.90;;;;;;8338047;28;20178;-65
2022/08/05 15:05:33;;;;;;;6.32;2.28;;;34.20;99.90;;;;;;8342762;28;20209;-64
2022/08/05 15:09:34;;;;;;;2.30;2.10;;;34.30;99.90;;;;;;8342027;28;20221;-65
2022/08/05 15:13:35;;;;;;;3.28;2.15;;;34.40;99.90;;;;;;8354949;28;20228;-64
2022/08/05 15:17:38;;;;;;;5.55;2.15;;;34.70;99.90;;;;;;8344728;28;20173;-66
2022/08/05 15:21:39;;;;;;;2.42;2.13;;;34.80;99.90;;;;;;8341199;28;20185;-64
2022/08/05 15:25:40;;;;;;;4.25;2.20;;;35.00;99.90;;;;;;8344591;28;20230;-63
2022/08/05 15:29:41;;;;;;;2.63;2.28;;;35.40;99.90;;;;;;8339378;28;20638;-63
2022/08/05 15:33:42;;;;;;;2.38;2.17;;;35.60;1.00;;;;;;8335988;28;20292;-64
2022/08/05 15:37:42;;;;;;;3.05;2.25;;;35.80;99.90;;;;;;8345245;28;20174;-64
2022/08/05 15:41:43;;;;;;;2.72;2.05;;;35.70;99.90;;;;;;8343052;28;20273;-64
2022/08/05 15:45:44;;;;;;;4.00;2.35;;;35.50;99.90;;;;;;8344689;28;20189;-70
2022/08/05 15:49:49;;;;;;;5.03;3.55;;;35.30;99.90;;;;;;8338924;28;20189;-64
2022/08/05 15:53:51;;;;;;;4.90;3.60;;;34.50;99.90;;;;;;8346739;28;20344;-64
2022/08/05 15:57:52;;;;;;;4.68;3.50;;;33.20;1.00;;;;;;8340163;28;20192;-64
2022/08/05 16:01:53;;;;;;;8.93;3.72;;;32.50;1.00;;;;;;8341935;28;20182;-64
2022/08/05 16:05:54;;;;;;;4.35;3.95;;;32.20;1.00;;;;;;8363110;28;20193;-64
2022/08/05 16:09:55;;;;;;;7.25;3.90;;;32.10;1.00;;;;;;8333570;28;20220;-64
2022/08/05 16:13:56;;;;;;;4.22;3.88;;;31.90;1.00;;;;;;8356287;28;20221;-64
2022/08/05 16:18:00;;;;;;;9.27;3.70;;;31.60;1.00;;;;;;8339574;28;20178;-65
2022/08/05 16:22:01;;;;;;;4.85;3.65;;;31.60;1.00;;;;;;8334998;28;20620;-67
2022/08/05 16:26:06;;;;;;;7.18;3.50;;;31.60;1.00;;;;;;8334805;28;20193;-64
2022/08/05 16:30:10;;;;;;;6.15;3.83;;;31.60;1.00;;;;;;8342891;28;20201;-65
2022/08/05 16:34:11;;;;;;;5.57;4.10;;;31.70;1.00;;;;;;8342061;28;20207;-63
2022/08/05 16:38:12;;;;;;;7.15;3.97;;;31.90;1.00;;;;;;8337119;28;20584;-64
2022/08/05 16:42:13;;;;;;;6.40;4.10;;;31.90;1.00;;;;;;8338829;28;20206;-63
2022/08/05 16:46:14;;;;;;;7.63;4.05;;;31.90;1.00;;;;;;8361712;28;20182;-63
2022/08/05 16:50:16;;;;;;;5.55;4.13;;;32.00;1.00;;;;;;8353740;28;20203;-63
2022/08/05 16:54:17;;;;;;;4.35;3.75;;;31.90;1.00;;;;;;8342390;28;20286;-63
2022/08/05 16:58:18;;;;;;;5.15;4.15;;;31.80;1.00;;;;;;8342426;28;20175;-67
2022/08/05 17:02:19;;;;;;;6.18;3.58;;;31.80;1.00;;;;;;8336205;28;20186;-65
2022/08/05 17:06:20;;;;;;;4.07;3.78;;;31.70;1.00;;;;;;8333856;28;20227;-64
2022/08/05 17:10:21;;;;;;;4.03;3.63;;;31.60;1.00;;;;;;8334384;28;20198;-64
2022/08/05 17:14:22;;;;;;;4.22;3.60;;;31.60;1.00;;;;;;8332774;28;20287;-64
2022/08/05 17:18:23;;;;;;;5.57;3.58;;;31.50;1.00;;;;;;8337264;28;20229;-64
2022/08/05 17:22:23;;;;;;;5.75;3.80;;;31.40;1.00;;;;;;8335207;28;20221;-64
2022/08/05 17:26:24;;;;;;;4.75;3.83;;;31.20;1.00;;;;;;8353155;28;20185;-64
2022/08/05 17:30:25;;;;;;;6.75;3.95;;;31.10;1.00;;;;;;8343437;28;20205;-64
2022/08/05 17:34:29;;;;;;;4.82;4.43;;;31.00;1.00;;;;;;8340842;28;20179;-65
2022/08/05 17:38:30;;;;;;;6.45;4.13;;;30.90;1.00;;;;;;8342602;28;20182;-65
2022/08/05 17:42:31;;;;;;;4.30;3.90;;;30.80;1.00;;;;;;8346959;28;20300;-65
2022/08/05 17:46:31;;;;;;;5.82;3.75;;;30.90;1.00;;;;;;8341077;28;20185;-64
2022/08/05 17:50:33;;;;;;;6.40;3.53;;;30.80;1.00;;;;;;8338704;28;20247;-65
2022/08/05 17:54:36;;;;;;;3.80;3.50;;;30.90;1.00;;;;;;8339213;28;20223;-65
2022/08/05 17:58:38;;;;;;;4.25;3.53;;;30.80;1.00;;;;;;8342935;28;20189;-65
2022/08/05 18:02:39;;;;;;;4.28;3.42;;;30.90;1.00;;;;;;8342933;28;20182;-65
2022/08/05 18:06:40;;;;;;;5.07;3.83;;;30.50;1.00;;;;;;8340702;28;20189;-65
2022/08/05 18:10:40;;;;;;;4.60;3.55;;;30.20;1.00;;;;;;8340080;28;20201;-65
2022/08/05 18:14:47;;;;;;;5.28;3.38;;;29.80;1.00;;;;;;8342051;28;20185;-65
2022/08/05 18:18:48;;;;;;;5.05;3.83;;;29.40;1.00;;;;;;8346869;28;20203;-65
2022/08/05 18:22:49;;;;;;;3.60;3.30;;;29.10;1.00;;;;;;8352128;28;20191;-65
2022/08/05 18:26:50;;;;;;;6.38;3.13;;;28.80;1.00;;;;;;8346877;28;20186;-65
2022/08/05 18:30:51;;;;;;;4.10;3.25;;;28.60;1.00;;;;;;8340581;28;20224;-65
2022/08/05 18:34:52;;;;;;;6.18;3.30;;;28.40;1.00;;;;;;8344243;28;20173;-65
2022/08/05 18:38:52;;;;;;;3.70;3.17;;;28.20;1.00;;;;;;8343621;28;20200;-64
2022/08/05 18:42:56;;;;;;;4.72;3.00;;;28.10;1.00;;;;;;8342464;28;20190;-65
2022/08/05 18:46:58;;;;;;;4.80;3.20;;;27.90;1.00;;;;;;8342549;28;20182;-65
2022/08/05 18:55:19;;;;;;;4.60;3.10;;;27.60;1.00;;;;;;8340872;28;20240;-65
2022/08/05 18:59:20;;;;;;;6.80;3.00;;;27.40;1.00;;;;;;8334959;28;20221;-68
2022/08/05 19:03:21;;;;;;;5.13;3.30;;;27.20;1.00;;;;;;8336414;28;20213;-67
2022/08/05 19:07:22;;;;;;;5.60;3.20;;;27.10;1.00;;;;;;8339347;28;20191;-66
2022/08/05 19:11:23;;;;;;;3.40;3.00;;;26.90;1.00;;;;;;8338053;28;20214;-66
2022/08/05 19:15:24;;;;;;;5.23;3.37;;;26.80;1.00;;;;;;8338966;28;20182;-66
2022/08/05 19:19:25;;;;;;;5.53;3.67;;;26.60;1.00;;;;;;8340246;28;20174;-66
2022/08/05 19:23:28;;;;;;;4.57;3.30;;;26.50;1.00;;;;;;8357963;28;20260;-66
2022/08/05 19:27:29;;;;;;;5.23;3.37;;;26.30;1.00;;;;;;8338459;28;20229;-68
2022/08/05 19:31:30;;;;;;;6.73;3.67;;;26.20;1.00;;;;;;8336628;28;20486;-66
2022/08/05 19:35:30;;;;;;;3.50;3.20;;;26.10;1.00;;;;;;8338319;28;20175;-67
2022/08/05 19:39:31;;;;;;;3.73;3.30;;;25.90;1.00;;;;;;8338295;28;20206;-66
2022/08/05 19:43:32;;;;;;;3.90;3.60;;;25.80;1.00;;;;;;8337153;28;20200;-66
2022/08/05 19:47:36;;;;;;;4.97;3.37;;;25.70;1.00;;;;;;8334458;28;20193;-66
2022/08/05 19:51:39;;;;;;;4.03;3.57;;;25.50;1.00;;;;;;8336351;28;20207;-66
2022/08/05 19:55:40;;;;;;;4.73;3.13;;;25.40;1.00;;;;;;8339544;28;20217;-66
2022/08/05 19:59:41;;;;;;;4.07;3.00;;;25.40;1.00;;;;;;8354445;28;20451;-66
2022/08/05 20:03:43;;;;;;;4.60;3.37;;;25.20;1.00;;;;;;8338106;28;20213;-66
2022/08/05 20:07:44;;;;;;;3.47;3.17;;;25.10;1.00;;;;;;8342471;28;20189;-66
2022/08/05 20:11:45;;;;;;;5.87;3.47;;;25.10;1.00;;;;;;8333484;28;20214;-65
2022/08/05 20:15:46;;;;;;;3.70;3.40;;;25.00;1.00;;;;;;8331028;28;20175;-65
2022/08/05 20:19:51;;;;;;;3.50;3.20;;;24.90;1.00;;;;;;8339620;28;20264;-65
2022/08/05 20:23:52;;;;;;;4.40;4.00;;;24.80;1.00;;;;;;8337236;28;20186;-65
2022/08/05 20:27:53;;;;;;;5.77;4.30;;;24.70;1.00;;;;;;8335220;28;20277;-65
2022/08/05 20:31:55;;;;;;;6.20;4.57;;;24.60;1.00;;;;;;8332381;28;20208;-65
2022/08/05 20:36:00;;;;;;;8.17;5.20;;;24.60;1.00;;;;;;8337933;28;20186;-65
2022/08/05 20:40:01;;;;;;;8.07;4.20;;;24.60;1.00;;;;;;8335914;28;20186;-65
2022/08/05 20:44:03;;;;;;;6.10;3.67;;;24.50;11.10;;;;;;8335953;28;20281;-66
2022/08/05 20:48:04;;;;;;;5.13;3.40;;;24.20;72.80;;;;;;8334460;28;20183;-65
2022/08/05 20:52:05;;;;;;;5.10;3.70;;;23.90;99.90;;;;;;8336108;28;20699;-66
2022/08/05 20:56:07;;;;;;;3.97;3.20;;;23.70;99.90;;;;;;8352031;28;20190;-65
2022/08/05 21:00:10;;;;;;;4.30;3.30;;;23.80;99.90;;;;;;8344097;28;20483;-65
2022/08/05 21:04:11;;;;;;;3.93;3.53;;;23.90;99.90;;;;;;8339895;28;20195;-65
2022/08/05 21:08:12;;;;;;;4.50;3.97;;;23.90;99.90;;;;;;8341700;28;20520;-66
2022/08/05 21:12:18;;;;;;;3.50;3.20;;;24.00;99.90;;;;;;8340406;28;20340;-65
2022/08/05 21:16:18;;;;;;;7.13;3.20;;;23.90;99.90;;;;;;8345637;28;20183;-65